Time;durP1;ratioP1;P1;durP2;ratioP2;P2;SDS_P1;SDS_P2;PMS_P1;PMS_P2;Temp;Humidity;BMP_temperature;BMP_pressure;BME280_temperature;BME280_humidity;BME280_pressure;Samples;Min_cycle;Max_cycle;Signal;HPM_P1;HPM_P2
2022/07/28 00:02:08;;;;;;;2.97;2.03;;;;;;;23.62;48.67;100066.44;5074425;28;20042;-68
2022/07/28 00:04:37;;;;;;;4.55;2.20;;;;;;;23.67;48.49;100064.03;5074652;28;20448;-67
2022/07/28 00:07:05;;;;;;;3.58;2.20;;;;;;;23.59;48.51;100053.22;5074329;28;20048;-67
2022/07/28 00:09:34;;;;;;;3.55;2.20;;;;;;;23.52;48.86;100057.66;5074428;28;20044;-67
2022/07/28 00:12:03;;;;;;;4.88;2.30;;;;;;;23.32;49.55;100063.56;5074198;28;20051;-68
2022/07/28 00:14:31;;;;;;;3.75;2.20;;;;;;;23.35;49.62;100060.47;5074489;28;20036;-68
2022/07/28 00:16:59;;;;;;;5.78;2.22;;;;;;;23.28;49.65;100062.22;5072500;28;20072;-68
2022/07/28 00:19:27;;;;;;;4.72;2.53;;;;;;;23.31;49.67;100061.84;5074291;28;20436;-68
2022/07/28 00:21:55;;;;;;;4.38;2.60;;;;;;;23.27;49.84;100052.38;5074053;28;20045;-68
2022/07/28 00:24:24;;;;;;;4.05;2.53;;;;;;;23.33;49.60;100059.81;5074174;28;20052;-66
2022/07/28 00:26:54;;;;;;;4.03;2.10;;;;;;;23.24;50.16;100058.16;5073754;28;20058;-67
2022/07/28 00:29:22;;;;;;;5.10;2.20;;;;;;;23.26;50.25;100058.84;5073920;28;20051;-66
2022/07/28 00:31:50;;;;;;;3.72;2.50;;;;;;;23.02;51.16;100058.97;5074044;28;20055;-67
2022/07/28 00:34:18;;;;;;;5.20;2.42;;;;;;;23.24;50.91;100066.31;5073959;28;20048;-66
2022/07/28 00:36:53;;;;;;;3.65;2.55;;;;;;;23.26;50.97;100058.84;5073792;28;20045;-66
2022/07/28 00:39:22;;;;;;;6.18;2.72;;;;;;;23.22;50.96;100052.03;5074032;28;20062;-66
2022/07/28 00:41:50;;;;;;;5.20;2.60;;;;;;;23.06;51.69;100052.13;5073291;28;20044;-67
2022/07/28 00:44:20;;;;;;;4.20;2.80;;;;;;;23.13;51.63;100050.41;5073880;28;20052;-68
2022/07/28 00:46:49;;;;;;;3.80;2.40;;;;;;;23.05;52.33;100036.84;5073575;28;20037;-69
2022/07/28 00:49:17;;;;;;;5.60;2.95;;;;;;;22.97;52.63;100039.59;5073700;28;20036;-68
2022/07/28 00:51:46;;;;;;;4.78;3.10;;;;;;;22.95;52.98;100036.19;5073518;28;20094;-68
2022/07/28 00:54:14;;;;;;;6.47;3.20;;;;;;;23.01;52.92;100036.34;5073436;28;20052;-69
2022/07/28 00:56:43;;;;;;;4.68;3.03;;;;;;;22.93;53.56;100032.81;5073433;28;20094;-69
2022/07/28 00:59:11;;;;;;;4.20;3.00;;;;;;;23.01;53.20;100033.63;5073297;28;20047;-67
2022/07/28 01:01:41;;;;;;;4.68;2.70;;;;;;;22.93;53.55;100032.81;5073190;28;20045;-66
2022/07/28 01:04:09;;;;;;;5.28;3.13;;;;;;;22.83;54.15;100033.00;5073364;28;20048;-66
2022/07/28 01:07:03;;;;;;;6.55;3.35;;;;;;;22.91;53.97;100032.16;5073344;28;20098;-67
2022/07/28 01:09:46;;;;;;;5.30;3.10;;;;;;;22.73;54.57;100027.78;5073707;28;20090;-66
2022/07/28 01:12:26;;;;;;;4.82;3.22;;;;;;;22.81;54.48;100029.63;5073535;28;20138;-67
2022/07/28 01:15:02;;;;;;;4.88;3.15;;;;;;;22.77;54.78;100029.09;5071757;28;20048;-67
2022/07/28 01:17:39;;;;;;;5.78;3.33;;;;;;;22.67;55.01;100027.63;5072255;28;20044;-67
2022/07/28 01:20:13;;;;;;;4.88;2.88;;;;;;;22.73;55.01;100032.38;5073042;28;20047;-67
2022/07/28 01:22:54;;;;;;;5.47;3.30;;;;;;;22.71;55.06;100027.09;5073291;28;20041;-67
2022/07/28 01:25:32;;;;;;;5.15;3.00;;;;;;;22.74;55.01;100024.03;5073207;28;20124;-66
2022/07/28 01:28:15;;;;;;;5.50;3.20;;;;;;;22.85;54.83;100031.81;5073118;28;20049;-66
2022/07/28 01:30:48;;;;;;;6.47;2.88;;;;;;;22.70;55.09;100030.00;5073269;28;20053;-66
2022/07/28 01:33:20;;;;;;;5.22;3.17;;;;;;;22.70;55.41;100030.00;5072892;28;20040;-66
2022/07/28 01:35:54;;;;;;;6.18;3.00;;;;;;;22.66;55.77;100025.94;5073044;28;20398;-67
2022/07/28 01:38:23;;;;;;;4.97;3.00;;;;;;;22.63;55.51;100029.84;5073175;28;20048;-67
2022/07/28 01:40:55;;;;;;;5.28;3.25;;;;;;;22.61;55.40;100029.19;5072895;28;20124;-67
2022/07/28 01:43:26;;;;;;;5.45;3.30;;;;;;;22.53;56.42;100021.91;5072580;28;20053;-67
2022/07/28 01:45:57;;;;;;;7.10;3.22;;;;;;;22.54;56.03;100028.19;5072783;28;20541;-68
2022/07/28 01:48:33;;;;;;;8.88;3.40;;;;;;;22.52;56.52;100024.78;5073176;28;20494;-67
2022/07/28 01:51:04;;;;;;;4.38;3.03;;;;;;;22.52;57.12;100024.78;5072885;28;20086;-67
2022/07/28 01:53:33;;;;;;;4.93;3.17;;;;;;;22.58;56.69;100024.06;5073215;28;20094;-67
2022/07/28 01:56:06;;;;;;;5.63;2.92;;;;;;;22.62;57.00;100025.44;5072692;28;20045;-67
2022/07/28 01:58:35;;;;;;;5.82;3.70;;;;;;;22.64;57.09;100017.94;5072824;28;20052;-67
2022/07/28 02:01:05;;;;;;;7.75;3.50;;;;;;;22.66;56.62;100021.34;5072201;28;20055;-68
2022/07/28 02:03:35;;;;;;;6.63;3.75;;;;;;;22.65;57.07;100013.34;5073211;28;20045;-67
2022/07/28 02:06:06;;;;;;;6.22;3.65;;;;;;;22.63;57.32;100016.25;5072673;28;20052;-67
2022/07/28 02:08:35;;;;;;;6.05;3.72;;;;;;;22.71;57.23;100015.38;5072804;28;20559;-67
2022/07/28 02:13:51;;;;;;;5.95;3.70;;;;;;;22.81;57.64;100019.59;5072889;28;20044;-67
2022/07/28 02:16:24;;;;;;;6.63;4.10;;;;;;;22.78;58.03;100013.66;5072886;28;20049;-67
2022/07/28 02:18:55;;;;;;;6.40;4.38;;;;;;;22.69;58.46;100010.13;5072726;28;20436;-71
2022/07/28 02:21:25;;;;;;;6.60;3.85;;;;;;;22.59;59.06;100009.50;5072616;28;20040;-67
2022/07/28 02:23:54;;;;;;;6.90;3.90;;;;;;;22.49;59.39;100011.56;5073083;28;20094;-70
2022/07/28 02:26:28;;;;;;;6.47;3.78;;;;;;;22.42;59.97;100007.84;5072397;28;20072;-69
2022/07/28 02:29:00;;;;;;;6.68;3.45;;;;;;;22.26;60.68;100004.13;5072391;28;20044;-69
2022/07/28 02:31:37;;;;;;;5.50;4.15;;;;;;;22.15;61.47;100006.38;5072586;28;20140;-68
2022/07/28 02:34:12;;;;;;;7.35;3.72;;;;;;;22.08;61.75;100017.06;5072616;28;20128;-68
2022/07/28 02:36:47;;;;;;;6.18;3.75;;;;;;;22.10;61.05;100017.78;5072685;28;20401;-68
2022/07/28 02:39:22;;;;;;;5.22;3.47;;;;;;;22.17;60.85;100021.47;5072409;28;20048;-67
2022/07/28 02:41:56;;;;;;;4.72;3.10;;;;;;;22.28;60.01;100029.25;5072400;28;20124;-67
2022/07/28 02:44:29;;;;;;;5.90;3.78;;;;;;;22.22;60.27;100029.97;5072380;28;20090;-67
2022/07/28 02:46:59;;;;;;;7.22;3.85;;;;;;;22.21;60.72;100028.28;5072025;28;20124;-68
2022/07/28 02:49:32;;;;;;;7.35;3.78;;;;;;;22.23;60.50;100034.38;5071209;28;20048;-67
2022/07/28 02:52:03;;;;;;;6.00;3.65;;;;;;;22.20;60.63;100032.00;5072379;28;20072;-67
2022/07/28 02:54:33;;;;;;;6.85;3.78;;;;;;;22.10;61.14;100031.34;5074394;28;20048;-68
2022/07/28 02:57:03;;;;;;;6.25;3.70;;;;;;;22.03;61.49;100030.31;5075556;28;20098;-68
2022/07/28 02:59:31;;;;;;;7.95;3.97;;;;;;;22.04;61.33;100029.28;5075701;28;20051;-68
2022/07/28 03:02:01;;;;;;;5.22;3.45;;;;;;;22.06;61.91;100040.81;5075503;28;20049;-69
2022/07/28 03:07:17;;;;;;;6.15;3.53;;;;;;;22.21;60.74;100049.16;5075408;28;20078;-68
2022/07/28 03:09:46;;;;;;;5.50;3.50;;;;;;;22.33;60.70;100057.78;5075387;28;20050;-68
2022/07/28 03:12:15;;;;;;;5.55;3.95;;;;;;;22.43;60.26;100058.44;5075515;28;20158;-68
2022/07/28 03:14:43;;;;;;;5.68;3.50;;;;;;;22.48;59.76;100056.03;5075748;28;20040;-69
2022/07/28 03:17:13;;;;;;;6.53;3.45;;;;;;;22.51;59.74;100051.13;5075395;28;20047;-70
2022/07/28 03:19:41;;;;;;;7.97;3.80;;;;;;;22.53;59.91;100049.06;5075446;28;20040;-68
2022/07/28 03:22:11;;;;;;;7.40;3.70;;;;;;;22.55;59.56;100046.19;5075199;28;20119;-69
2022/07/28 03:24:42;;;;;;;6.53;3.90;;;;;;;22.54;59.39;100049.94;5075476;28;20045;-68
2022/07/28 03:27:17;;;;;;;8.02;3.95;;;;;;;22.48;59.78;100045.16;5075248;28;20040;-69
2022/07/28 03:29:50;;;;;;;6.05;3.78;;;;;;;22.43;59.98;100053.88;5075323;28;20123;-69
2022/07/28 03:32:22;;;;;;;6.88;3.72;;;;;;;22.43;60.02;100055.72;5074700;28;20052;-69
2022/07/28 03:34:51;;;;;;;6.28;3.72;;;;;;;22.39;60.97;100057.97;5075111;28;20502;-68
2022/07/28 03:37:25;;;;;;;6.20;3.58;;;;;;;22.40;60.76;100056.09;5073342;28;20485;-68
2022/07/28 03:39:56;;;;;;;6.05;3.65;;;;;;;22.36;60.96;100058.28;5074946;28;20062;-69
2022/07/28 03:42:25;;;;;;;7.10;3.72;;;;;;;22.48;60.45;100061.47;5075381;28;20048;-69
2022/07/28 03:44:54;;;;;;;7.40;4.10;;;;;;;22.66;59.21;100059.38;5074859;28;20055;-69
2022/07/28 03:47:24;;;;;;;7.05;3.80;;;;;;;22.71;59.26;100062.44;5074597;28;20079;-69
2022/07/28 03:49:52;;;;;;;5.50;3.90;;;;;;;22.61;60.07;100067.25;5075011;28;20040;-69
2022/07/28 03:52:21;;;;;;;8.25;3.95;;;;;;;22.56;59.79;100069.63;5074642;28;20059;-69
2022/07/28 03:54:52;;;;;;;7.60;4.07;;;;;;;22.64;59.55;100080.47;5074898;28;20093;-68
2022/07/28 03:57:21;;;;;;;6.40;4.05;;;;;;;22.88;59.20;100082.31;5074618;28;20036;-68
2022/07/28 03:59:49;;;;;;;6.82;3.88;;;;;;;23.31;57.21;100086.34;5074443;28;20041;-68
2022/07/28 04:02:17;;;;;;;6.47;4.20;;;;;;;23.12;57.67;100087.63;5074327;28;20040;-68
2022/07/28 04:04:46;;;;;;;6.70;3.92;;;;;;;22.93;58.78;100088.06;5074288;28;20052;-69
2022/07/28 04:07:14;;;;;;;6.60;4.10;;;;;;;22.94;59.39;100087.03;5074175;28;20048;-69
2022/07/28 04:09:43;;;;;;;7.47;4.00;;;;;;;23.11;58.90;100098.69;5074304;28;20040;-68
2022/07/28 04:12:11;;;;;;;7.03;3.90;;;;;;;23.41;57.89;100095.13;5074153;28;20051;-68
2022/07/28 04:14:40;;;;;;;8.60;4.07;;;;;;;23.38;58.08;100095.50;5074414;28;20044;-68
2022/07/28 04:17:08;;;;;;;6.93;3.90;;;;;;;24.37;54.81;100093.78;5074066;28;20391;-68
2022/07/28 04:19:36;;;;;;;8.75;4.10;;;;;;;25.24;52.20;100091.28;5074418;28;20048;-68
2022/07/28 04:22:05;;;;;;;8.38;3.78;;;;;;;25.24;51.75;100093.16;5073840;28;20470;-69
2022/07/28 04:24:33;;;;;;;6.47;3.85;;;;;;;24.49;53.70;100086.00;5074214;28;20115;-69
2022/07/28 04:27:01;;;;;;;6.53;3.88;;;;;;;24.26;55.17;100096.94;5073696;28;20048;-70
2022/07/28 04:29:30;;;;;;;6.97;3.55;;;;;;;24.14;55.96;100093.81;5074222;28;20037;-69
2022/07/28 04:31:58;;;;;;;6.47;3.63;;;;;;;23.82;57.17;100099.50;5074003;28;20060;-69
2022/07/28 04:34:26;;;;;;;6.65;3.72;;;;;;;23.93;56.93;100091.78;5073897;28;20102;-69
2022/07/28 04:36:55;;;;;;;7.07;3.70;;;;;;;23.74;58.01;100088.66;5073795;28;20047;-69
2022/07/28 04:39:24;;;;;;;7.00;4.13;;;;;;;23.72;58.36;100086.13;5073524;28;20037;-69
2022/07/28 04:41:52;;;;;;;5.50;3.47;;;;;;;23.87;57.73;100092.50;5073886;28;20040;-70
2022/07/28 04:44:21;;;;;;;9.95;4.10;;;;;;;23.76;58.57;100090.19;5072230;28;20071;-70
2022/07/28 04:46:49;;;;;;;6.72;4.07;;;;;;;23.81;58.30;100098.66;5073894;28;20508;-69
2022/07/28 04:49:17;;;;;;;7.88;3.95;;;;;;;23.77;58.66;100094.59;5073514;28;20496;-68
2022/07/28 04:51:49;;;;;;;8.25;4.25;;;;;;;23.80;58.88;100098.84;5073455;28;20128;-68
2022/07/28 04:54:17;;;;;;;8.53;3.77;;;;;;;23.86;58.43;100101.69;5073469;28;20049;-69
2022/07/28 04:56:54;;;;;;;8.40;4.57;;;;;;;23.83;58.91;100102.03;5073677;28;20041;-68
2022/07/28 04:59:23;;;;;;;7.63;4.32;;;;;;;24.08;58.20;100099.97;5073268;28;20040;-68
2022/07/28 05:01:52;;;;;;;5.90;4.00;;;;;;;24.08;57.92;100104.56;5073517;28;20052;-68
2022/07/28 05:04:20;;;;;;;7.32;3.97;;;;;;;24.02;59.41;100110.75;5073143;28;20125;-68
2022/07/28 05:06:48;;;;;;;9.70;5.00;;;;;;;24.22;57.88;100106.47;5073238;28;20075;-69
2022/07/28 05:09:17;;;;;;;6.47;4.22;;;;;;;24.33;57.24;100108.81;5073149;28;20048;-68
2022/07/28 05:11:45;;;;;;;8.20;4.45;;;;;;;24.55;56.80;100112.53;5073346;28;20044;-69
2022/07/28 05:14:16;;;;;;;9.38;5.00;;;;;;;24.71;56.43;100111.50;5072785;28;20044;-71
2022/07/28 05:16:44;;;;;;;6.13;3.90;;;;;;;24.90;55.28;100113.69;5072415;28;20452;-70
2022/07/28 05:19:13;;;;;;;10.65;4.70;;;;;;;24.93;59.09;100120.63;5072795;28;20460;-68
2022/07/28 05:21:41;;;;;;;8.15;4.43;;;;;;;24.81;60.21;100117.53;5073143;28;20051;-69
2022/07/28 05:24:09;;;;;;;9.30;4.93;;;;;;;25.23;59.56;100122.34;5072739;28;20040;-69
2022/07/28 05:26:37;;;;;;;7.03;4.30;;;;;;;25.26;55.22;100123.84;5071750;28;20056;-68
2022/07/28 05:29:06;;;;;;;6.10;4.22;;;;;;;25.40;54.45;100128.44;5072808;28;20520;-68
2022/07/28 05:31:35;;;;;;;7.82;4.45;;;;;;;25.49;53.81;100121.84;5072478;28;20048;-68
2022/07/28 05:34:04;;;;;;;9.38;4.82;;;;;;;25.58;52.77;100120.69;5072968;28;20068;-70
2022/07/28 05:36:33;;;;;;;8.10;4.25;;;;;;;25.79;51.09;100130.81;5072114;28;20047;-70
2022/07/28 05:39:03;;;;;;;7.55;4.28;;;;;;;25.61;51.68;100133.94;5072977;28;20436;-70
2022/07/28 05:41:31;;;;;;;10.55;4.53;;;;;;;25.24;54.02;100137.69;5072987;28;20119;-68
2022/07/28 05:44:00;;;;;;;11.00;4.70;;;;;;;25.58;53.92;100136.22;5072762;28;20040;-67
2022/07/28 05:46:28;;;;;;;10.10;4.32;;;;;;;25.72;52.65;100145.44;5072771;28;20078;-68
2022/07/28 05:48:57;;;;;;;8.32;4.40;;;;;;;25.79;52.16;100138.16;5071768;28;20055;-67
2022/07/28 05:51:26;;;;;;;12.98;4.70;;;;;;;25.53;52.80;100144.97;5072758;28;20148;-69
2022/07/28 05:53:54;;;;;;;8.23;4.55;;;;;;;25.61;51.83;100142.13;5072797;28;20040;-69
2022/07/28 05:56:22;;;;;;;8.70;4.03;;;;;;;25.30;53.60;100144.28;5072490;28;20040;-70
2022/07/28 05:58:51;;;;;;;9.43;4.22;;;;;;;25.28;54.31;100149.91;5072476;28;20051;-70
2022/07/28 06:01:19;;;;;;;11.35;4.68;;;;;;;25.33;54.23;100149.34;5071186;28;20054;-71
2022/07/28 06:03:51;;;;;;;7.47;4.32;;;;;;;25.30;52.52;100149.72;5072712;28;20044;-70
2022/07/28 06:06:41;;;;;;;8.63;4.80;;;;;;;25.33;52.47;100150.19;5072710;28;20047;-68
2022/07/28 06:09:09;;;;;;;7.47;4.20;;;;;;;25.60;51.87;100150.53;5072108;28;20079;-69
2022/07/28 06:11:37;;;;;;;8.10;4.50;;;;;;;25.65;51.65;100153.50;5072443;28;20127;-68
2022/07/28 06:14:05;;;;;;;7.93;4.10;;;;;;;25.58;51.75;100163.53;5072641;28;20037;-68
2022/07/28 06:16:33;;;;;;;7.03;4.13;;;;;;;25.60;51.34;100166.91;5072439;28;20051;-68
2022/07/28 06:19:02;;;;;;;7.78;4.32;;;;;;;25.38;51.02;100165.97;5071209;28;20076;-69
2022/07/28 06:21:31;;;;;;;6.82;4.32;;;;;;;24.99;52.05;100164.38;5072181;28;20454;-70
2022/07/28 06:24:01;;;;;;;8.50;4.40;;;;;;;25.30;51.52;100175.16;5071171;28;20485;-68
2022/07/28 06:26:29;;;;;;;6.75;4.03;;;;;;;24.94;51.80;100165.97;5072368;28;20072;-69
2022/07/28 06:28:58;;;;;;;9.50;4.50;;;;;;;25.01;51.87;100164.19;5075170;28;20044;-68
2022/07/28 06:31:26;;;;;;;8.77;4.50;;;;;;;25.52;51.14;100172.47;5075480;28;20139;-68
2022/07/28 06:33:54;;;;;;;11.10;4.47;;;;;;;26.07;49.25;100171.88;5075902;28;20119;-67
2022/07/28 06:36:22;;;;;;;5.88;4.10;;;;;;;25.80;46.96;100172.63;5074564;28;20083;-67
2022/07/28 06:38:51;;;;;;;8.70;4.68;;;;;;;25.87;47.52;100174.41;5076082;28;20482;-67
2022/07/28 06:41:20;;;;;;;8.98;4.63;;;;;;;27.37;44.25;100175.03;5075748;28;20557;-67
2022/07/28 06:43:50;;;;;;;6.13;3.78;;;;;;;27.76;41.43;100170.78;5075024;28;20127;-67
2022/07/28 06:46:19;;;;;;;8.13;4.15;;;;;;;27.84;41.77;100175.25;5075622;28;20101;-68
2022/07/28 06:48:47;;;;;;;6.07;3.95;;;;;;;27.88;41.23;100179.25;5075743;28;20082;-67
2022/07/28 06:51:17;;;;;;;7.65;4.32;;;;;;;28.08;40.80;100182.03;5075776;28;20050;-67
2022/07/28 06:53:47;;;;;;;8.88;4.30;;;;;;;27.85;41.08;100183.25;5075942;28;20045;-67
2022/07/28 06:56:16;;;;;;;5.88;3.85;;;;;;;27.93;41.00;100183.06;5075420;28;20051;-67
2022/07/28 06:58:45;;;;;;;6.68;3.85;;;;;;;28.18;39.91;100190.69;5075718;28;20124;-67
2022/07/28 07:01:14;;;;;;;6.75;3.90;;;;;;;28.24;39.90;100189.88;5075674;28;20535;-67
2022/07/28 07:03:43;;;;;;;6.35;4.00;;;;;;;28.11;40.40;100187.97;5074496;28;20052;-67
2022/07/28 07:06:11;;;;;;;5.72;3.90;;;;;;;28.20;40.29;100194.94;5075649;28;20048;-68
2022/07/28 07:08:39;;;;;;;5.97;3.92;;;;;;;28.43;40.06;100186.34;5075527;28;20145;-67
2022/07/28 07:11:07;;;;;;;7.65;3.90;;;;;;;28.43;39.22;100182.75;5075558;28;20048;-67
2022/07/28 07:13:36;;;;;;;6.18;3.83;;;;;;;28.22;40.16;100189.25;5075540;28;20066;-67
2022/07/28 07:16:06;;;;;;;7.05;3.90;;;;;;;28.07;40.44;100189.41;5075933;28;20037;-67
2022/07/28 07:18:34;;;;;;;5.55;3.95;;;;;;;27.94;40.69;100187.50;5075971;28;20576;-67
2022/07/28 07:21:03;;;;;;;8.65;4.07;;;;;;;27.73;40.90;100187.66;5075508;28;20039;-67
2022/07/28 07:23:31;;;;;;;7.57;3.97;;;;;;;27.23;41.24;100188.88;5075022;28;20054;-67
2022/07/28 07:25:59;;;;;;;7.28;4.18;;;;;;;27.32;41.28;100191.22;5074185;28;20051;-67
2022/07/28 07:28:27;;;;;;;5.25;3.83;;;;;;;26.99;42.02;100193.72;5074863;28;20044;-67
2022/07/28 07:30:56;;;;;;;10.75;4.20;;;;;;;26.85;42.54;100188.38;5075130;28;20053;-67
2022/07/28 07:33:25;;;;;;;5.88;4.00;;;;;;;27.36;41.15;100194.41;5075006;28;20097;-67
2022/07/28 07:35:54;;;;;;;8.60;3.97;;;;;;;27.10;42.39;100186.88;5073777;28;20049;-67
2022/07/28 07:38:22;;;;;;;8.50;4.15;;;;;;;26.72;42.39;100189.94;5074637;28;20044;-67
2022/07/28 07:40:56;;;;;;;6.32;4.38;;;;;;;27.12;41.70;100189.41;5073293;28;20083;-67
2022/07/28 07:43:24;;;;;;;7.20;4.40;;;;;;;27.21;41.88;100188.19;5074738;28;20076;-67
2022/07/28 07:45:53;;;;;;;7.10;4.05;;;;;;;27.38;41.21;100189.56;5075259;28;20044;-67
2022/07/28 07:48:21;;;;;;;8.77;4.30;;;;;;;27.44;40.50;100187.91;5074593;28;20041;-69
2022/07/28 07:50:51;;;;;;;6.28;3.90;;;;;;;27.50;41.28;100181.59;5074736;28;20041;-67
2022/07/28 07:53:21;;;;;;;7.60;4.15;;;;;;;27.29;40.93;100186.13;5074428;28;20048;-67
2022/07/28 07:55:50;;;;;;;6.32;3.78;;;;;;;27.23;42.67;100186.13;5074853;28;20044;-67
2022/07/28 07:58:18;;;;;;;6.15;3.67;;;;;;;27.48;41.32;100173.59;5073140;28;20044;-68
2022/07/28 08:00:46;;;;;;;7.25;4.15;;;;;;;27.73;40.47;100179.44;5073371;28;20052;-67
2022/07/28 08:03:15;;;;;;;7.28;4.32;;;;;;;27.74;40.87;100175.63;5072725;28;20055;-68
2022/07/28 08:05:54;;;;;;;6.57;4.55;;;;;;;27.91;40.23;100185.19;5074701;28;20044;-67
2022/07/28 08:08:24;;;;;;;6.80;4.03;;;;;;;27.70;40.39;100179.84;5072876;28;20482;-67
2022/07/28 08:10:53;;;;;;;7.82;4.38;;;;;;;27.58;41.50;100181.44;5073204;28;20053;-67
2022/07/28 08:13:21;;;;;;;7.10;4.00;;;;;;;27.67;40.70;100180.25;5072784;28;20086;-67
2022/07/28 08:15:50;;;;;;;7.05;3.92;;;;;;;27.59;41.46;100177.63;5074171;28;20434;-67
2022/07/28 08:18:19;;;;;;;7.53;4.05;;;;;;;27.65;40.72;100187.78;5074145;28;20478;-67
2022/07/28 08:20:47;;;;;;;6.05;3.97;;;;;;;27.54;40.83;100183.75;5074197;28;20443;-67
2022/07/28 08:23:17;;;;;;;6.20;4.05;;;;;;;27.24;41.38;100187.81;5073749;28;20040;-67
2022/07/28 08:25:52;;;;;;;7.43;3.92;;;;;;;27.24;41.22;100183.19;5074323;28;20044;-67
2022/07/28 08:28:21;;;;;;;6.68;3.90;;;;;;;27.28;41.55;100183.63;5072385;28;20079;-67
2022/07/28 08:30:49;;;;;;;6.53;3.85;;;;;;;27.25;41.38;100184.88;5073629;28;20075;-67
2022/07/28 08:33:20;;;;;;;5.70;3.80;;;;;;;27.40;40.77;100181.97;5073824;28;20048;-68
2022/07/28 08:35:49;;;;;;;5.88;3.47;;;;;;;27.46;40.02;100177.59;5073837;28;20482;-67
2022/07/28 08:38:19;;;;;;;6.32;3.90;;;;;;;27.31;40.58;100181.34;5073592;28;20036;-68
2022/07/28 08:40:50;;;;;;;6.15;3.97;;;;;;;27.43;40.36;100176.13;5074068;28;20147;-67
2022/07/28 08:43:30;;;;;;;6.78;3.85;;;;;;;27.52;39.96;100179.53;5073554;28;20081;-67
2022/07/28 08:45:59;;;;;;;6.05;3.70;;;;;;;27.51;39.98;100177.84;5072340;28;20444;-67
2022/07/28 08:48:31;;;;;;;6.93;3.95;;;;;;;27.28;40.30;100178.97;5073428;28;20047;-67
2022/07/28 08:51:02;;;;;;;9.80;4.28;;;;;;;27.27;40.37;100177.28;5072043;28;20052;-67
2022/07/28 08:53:32;;;;;;;8.18;4.22;;;;;;;27.11;40.78;100177.59;5071859;28;20080;-67
2022/07/28 08:56:04;;;;;;;8.93;3.60;;;;;;;27.39;40.92;100177.56;5074136;28;20045;-67
2022/07/28 08:58:33;;;;;;;6.43;3.53;;;;;;;27.61;40.04;100173.66;5073467;28;20102;-67
2022/07/28 09:01:02;;;;;;;5.72;3.85;;;;;;;27.75;40.83;100182.81;5073291;28;20047;-67
2022/07/28 09:03:31;;;;;;;7.13;3.78;;;;;;;27.86;39.99;100178.63;5071548;28;20114;-67
2022/07/28 09:05:59;;;;;;;6.35;3.80;;;;;;;27.76;40.04;100181.75;5073202;28;20045;-67
2022/07/28 09:08:28;;;;;;;7.25;3.70;;;;;;;27.92;39.14;100177.81;5071956;28;20072;-67
2022/07/28 09:10:57;;;;;;;8.88;4.50;;;;;;;27.94;39.51;100173.78;5073327;28;20143;-67
2022/07/28 09:13:25;;;;;;;10.20;4.78;;;;;;;27.93;39.29;100172.09;5073079;28;20043;-67
2022/07/28 09:15:54;;;;;;;5.07;3.55;;;;;;;27.74;39.63;100172.91;5073310;28;20094;-67
2022/07/28 09:18:22;;;;;;;6.95;3.60;;;;;;;27.76;39.03;100168.03;5072974;28;20079;-67
2022/07/28 09:20:50;;;;;;;7.05;4.13;;;;;;;27.70;40.01;100166.16;5073101;28;20040;-67
2022/07/28 09:23:19;;;;;;;5.78;4.00;;;;;;;27.98;39.10;100173.38;5072983;28;20123;-68
2022/07/28 09:26:09;;;;;;;5.35;3.80;;;;;;;28.00;39.10;100168.56;5073098;28;20071;-67
2022/07/28 09:28:50;;;;;;;7.32;3.70;;;;;;;28.10;38.59;100167.09;5073118;28;20405;-67
2022/07/28 09:31:20;;;;;;;5.53;3.15;;;;;;;28.23;37.12;100158.88;5071321;28;20084;-70
2022/07/28 09:33:59;;;;;;;6.22;3.63;;;;;;;28.22;37.27;100164.56;5073231;28;20048;-67
2022/07/28 09:36:28;;;;;;;7.70;3.78;;;;;;;28.06;37.86;100154.00;5071453;28;20056;-67
2022/07/28 09:38:57;;;;;;;7.03;3.92;;;;;;;28.06;37.80;100154.00;5071570;28;20056;-67
2022/07/28 09:41:27;;;;;;;6.68;3.53;;;;;;;28.18;37.41;100157.78;5072816;28;20401;-67
2022/07/28 09:43:55;;;;;;;6.45;3.67;;;;;;;28.24;37.89;100151.47;5071639;28;20043;-67
2022/07/28 09:46:25;;;;;;;6.40;3.65;;;;;;;28.39;37.61;100145.84;5072887;28;20040;-67
2022/07/28 09:48:58;;;;;;;6.47;3.60;;;;;;;28.64;36.08;100143.28;5073023;28;20051;-67
2022/07/28 09:51:29;;;;;;;5.97;3.45;;;;;;;28.84;36.33;100141.34;5072765;28;20440;-67
2022/07/28 09:54:07;;;;;;;7.07;3.90;;;;;;;28.89;36.28;100144.34;5073018;28;20051;-67
2022/07/28 09:56:38;;;;;;;5.45;3.30;;;;;;;28.75;36.09;100139.88;5072608;28;20040;-67
2022/07/28 09:59:07;;;;;;;5.45;3.47;;;;;;;28.67;36.17;100137.41;5072527;28;20048;-67
2022/07/28 10:01:51;;;;;;;7.30;3.33;;;;;;;28.72;36.44;100137.59;5072404;28;20047;-67
2022/07/28 10:04:31;;;;;;;5.90;3.70;;;;;;;28.66;36.19;100138.41;5074656;28;20135;-68
2022/07/28 10:07:08;;;;;;;6.28;3.60;;;;;;;28.88;35.79;100134.41;5075798;28;20416;-67
2022/07/28 10:09:38;;;;;;;6.63;3.40;;;;;;;29.04;36.07;100135.84;5076614;28;20051;-67
2022/07/28 10:12:22;;;;;;;6.47;3.63;;;;;;;29.15;35.33;100137.97;5076850;28;20047;-67
2022/07/28 10:14:51;;;;;;;5.30;3.20;;;;;;;29.22;35.63;100133.25;5075341;28;20040;-67
2022/07/28 10:17:28;;;;;;;5.35;3.10;;;;;;;29.57;33.96;100133.78;5076789;28;20045;-67
2022/07/28 10:19:58;;;;;;;8.15;3.40;;;;;;;29.76;33.61;100132.00;5075331;28;20057;-67
2022/07/28 10:22:31;;;;;;;5.35;3.38;;;;;;;29.77;34.15;100135.59;5076130;28;20047;-67
2022/07/28 10:25:02;;;;;;;5.88;3.15;;;;;;;29.86;33.80;100123.28;5076440;28;20047;-67
2022/07/28 10:27:32;;;;;;;7.32;3.17;;;;;;;29.82;33.71;100122.88;5075049;28;20057;-67
2022/07/28 10:30:01;;;;;;;5.90;3.33;;;;;;;29.80;33.72;100124.16;5075239;28;20132;-67
2022/07/28 10:32:37;;;;;;;7.22;3.35;;;;;;;29.85;33.48;100118.84;5076112;28;20415;-67
2022/07/28 10:35:09;;;;;;;5.75;3.20;;;;;;;29.80;33.47;100122.25;5076190;28;20062;-67
2022/07/28 10:37:43;;;;;;;8.02;3.55;;;;;;;30.00;33.63;100111.09;5075992;28;20115;-68
2022/07/28 10:40:12;;;;;;;7.40;3.60;;;;;;;30.09;33.65;100109.81;5075168;28;20455;-67
2022/07/28 10:42:42;;;;;;;6.65;3.40;;;;;;;30.23;33.16;100106.97;5074707;28;20049;-67
2022/07/28 10:45:11;;;;;;;7.25;3.38;;;;;;;30.14;33.00;100110.00;5076144;28;20083;-68
2022/07/28 10:47:39;;;;;;;5.60;3.50;;;;;;;30.03;33.39;100105.19;5075917;28;20036;-68
2022/07/28 10:50:08;;;;;;;6.38;3.40;;;;;;;30.11;33.53;100104.94;5074539;28;20408;-67
2022/07/28 10:52:38;;;;;;;8.77;3.83;;;;;;;30.36;32.74;100104.09;5074642;28;20072;-68
2022/07/28 10:55:27;;;;;;;6.85;3.60;;;;;;;30.54;32.08;100101.41;5074755;28;20082;-67
2022/07/28 10:58:09;;;;;;;6.95;3.30;;;;;;;30.57;32.25;100100.94;5075806;28;20482;-68
2022/07/28 11:00:47;;;;;;;6.32;3.40;;;;;;;30.60;32.39;100095.00;5074404;28;20591;-68
2022/07/28 11:03:37;;;;;;;6.38;3.65;;;;;;;30.64;32.76;100088.00;5075968;28;20055;-67
2022/07/28 11:06:25;;;;;;;7.15;3.45;;;;;;;30.69;31.92;100096.44;5074442;28;20048;-67
2022/07/28 11:08:54;;;;;;;6.40;3.33;;;;;;;30.60;32.46;100084.00;5074344;28;20493;-68
2022/07/28 11:11:46;;;;;;;7.72;3.42;;;;;;;30.48;32.26;100085.78;5075770;28;20045;-67
2022/07/28 11:14:39;;;;;;;7.40;3.70;;;;;;;30.50;31.63;100089.16;5074494;28;20102;-67
2022/07/28 11:17:16;;;;;;;7.45;3.40;;;;;;;30.11;32.48;100085.69;5070261;28;20481;-68
2022/07/28 11:19:55;;;;;;;7.57;3.60;;;;;;;30.17;32.62;100082.03;5075484;28;20044;-68
2022/07/28 11:22:43;;;;;;;6.57;3.58;;;;;;;30.11;32.57;100087.56;5075136;28;20047;-68
2022/07/28 11:25:16;;;;;;;7.38;3.88;;;;;;;30.00;32.61;100080.88;5075338;28;20049;-68
2022/07/28 11:28:04;;;;;;;5.78;3.97;;;;;;;29.94;33.38;100081.78;5075092;28;20040;-68
2022/07/28 11:30:54;;;;;;;6.53;3.53;;;;;;;29.92;33.16;100083.91;5074853;28;20390;-68
2022/07/28 11:33:26;;;;;;;5.57;3.38;;;;;;;30.10;32.42;100081.25;5075063;28;20052;-68
2022/07/28 11:35:59;;;;;;;6.90;3.80;;;;;;;30.20;32.27;100073.31;5075138;28;20044;-68
2022/07/28 11:38:29;;;;;;;10.02;3.50;;;;;;;30.50;31.78;100078.16;5073845;28;20373;-68
2022/07/28 11:40:57;;;;;;;5.82;3.47;;;;;;;30.95;31.23;100077.91;5075256;28;20083;-67
2022/07/28 11:43:30;;;;;;;8.38;3.67;;;;;;;31.34;30.38;100071.09;5074875;28;20051;-67
2022/07/28 11:46:36;;;;;;;7.03;3.60;;;;;;;31.66;30.26;100073.66;5073653;28;20423;-66
2022/07/28 11:49:23;;;;;;;7.40;3.63;;;;;;;31.78;30.41;100074.56;5074786;28;20040;-66